createdAt,value
2022-10-08T00:00:34.902Z,99.99
2022-10-08T00:01:34.948Z,99.99
2022-10-08T00:02:34.880Z,99.99
2022-10-08T00:03:34.863Z,99.99
2022-10-08T00:04:34.931Z,99.99
2022-10-08T00:05:35.241Z,99.99
2022-10-08T00:06:34.843Z,99.99
2022-10-08T00:07:34.822Z,99.99
2022-10-08T00:08:34.813Z,99.99
2022-10-08T00:09:34.805Z,99.99
2022-10-08T00:10:34.795Z,99.99
2022-10-08T00:11:34.820Z,99.99
2022-10-08T00:12:34.779Z,99.99
2022-10-08T00:13:34.764Z,99.99
2022-10-08T00:14:34.758Z,99.99
2022-10-08T00:15:34.737Z,99.99
2022-10-08T00:16:34.815Z,99.99
2022-10-08T00:17:34.758Z,99.99
2022-10-08T00:18:34.717Z,99.99
2022-10-08T00:19:34.698Z,99.99
2022-10-08T00:20:34.696Z,99.99
2022-10-08T00:21:35.456Z,99.99
2022-10-08T00:22:34.669Z,99.99
2022-10-08T00:23:34.702Z,99.99
2022-10-08T00:24:34.655Z,99.99
2022-10-08T00:25:34.640Z,99.99
2022-10-08T00:26:37.483Z,99.99
2022-10-08T00:27:35.619Z,99.99
2022-10-08T00:28:34.676Z,99.99
2022-10-08T00:29:34.629Z,99.99
2022-10-08T00:30:34.591Z,99.99
2022-10-08T00:31:34.607Z,99.99
2022-10-08T00:32:34.570Z,99.99
2022-10-08T00:33:34.557Z,99.99
2022-10-08T00:34:34.553Z,99.99
2022-10-08T00:35:34.561Z,99.99
2022-10-08T00:36:34.532Z,99.99
2022-10-08T00:37:34.522Z,99.99
2022-10-08T00:38:34.512Z,99.99
2022-10-08T00:39:34.493Z,99.99
2022-10-08T00:40:34.494Z,99.99
2022-10-08T00:41:34.503Z,99.99
2022-10-08T00:42:34.471Z,99.99
2022-10-08T00:43:34.453Z,99.99
2022-10-08T00:44:34.445Z,99.99
2022-10-08T00:45:34.474Z,99.99
2022-10-08T00:46:34.434Z,99.99
2022-10-08T00:47:34.449Z,99.99
2022-10-08T00:48:34.407Z,99.99
2022-10-08T00:49:34.397Z,99.99
2022-10-08T00:50:34.389Z,99.99
2022-10-08T00:51:34.365Z,99.99
2022-10-08T00:52:34.366Z,99.99
2022-10-08T00:53:34.378Z,99.99
2022-10-08T00:54:34.347Z,99.99
2022-10-08T00:55:34.329Z,99.99
2022-10-08T00:56:34.325Z,99.99
2022-10-08T00:57:34.319Z,99.99
2022-10-08T00:58:34.304Z,99.99
2022-10-08T00:59:34.319Z,99.99
2022-10-08T01:00:34.343Z,99.99
2022-10-08T01:01:34.270Z,99.99
2022-10-08T01:02:34.265Z,99.99
2022-10-08T01:03:34.249Z,99.99
2022-10-08T01:04:34.241Z,99.99
2022-10-08T01:05:34.260Z,99.99
2022-10-08T01:06:34.222Z,99.99
2022-10-08T01:07:34.209Z,99.99
2022-10-08T01:08:34.204Z,99.99
2022-10-08T01:09:34.192Z,99.99
2022-10-08T01:10:34.180Z,99.99
2022-10-08T01:11:34.202Z,99.99
2022-10-08T01:12:34.162Z,99.99
2022-10-08T01:13:34.154Z,99.99
2022-10-08T01:14:34.139Z,99.99
2022-10-08T01:15:34.966Z,99.99
2022-10-08T01:16:34.198Z,99.99
2022-10-08T01:17:34.134Z,99.99
2022-10-08T01:18:34.101Z,99.99
2022-10-08T01:19:34.083Z,99.99
2022-10-08T01:20:34.073Z,99.99
2022-10-08T01:21:34.054Z,99.99
2022-10-08T01:22:34.062Z,99.99
2022-10-08T01:23:34.084Z,99.99
2022-10-08T01:24:34.034Z,99.99
2022-10-08T01:25:34.048Z,99.99
2022-10-08T01:26:34.016Z,99.99
2022-10-08T01:27:34.003Z,99.99
2022-10-08T01:28:34.052Z,99.99
2022-10-08T01:29:34.016Z,99.99
2022-10-08T01:30:33.977Z,99.99
2022-10-08T01:31:34.029Z,99.99
2022-10-08T01:32:33.956Z,99.99
2022-10-08T01:33:33.949Z,99.99
2022-10-08T01:34:33.936Z,99.99
2022-10-08T01:35:33.948Z,99.99
2022-10-08T01:36:33.918Z,99.99
2022-10-08T01:37:33.898Z,99.99
2022-10-08T01:38:33.895Z,99.99
2022-10-08T01:39:33.880Z,99.99
2022-10-08T01:40:33.872Z,99.99
2022-10-08T01:41:33.882Z,99.99
2022-10-08T01:42:33.850Z,99.99
2022-10-08T01:43:33.841Z,99.99
2022-10-08T01:44:33.821Z,99.99
2022-10-08T01:45:33.864Z,99.99
2022-10-08T01:46:33.818Z,99.99
2022-10-08T01:47:33.820Z,99.99
2022-10-08T01:48:33.783Z,99.99
2022-10-08T01:49:33.771Z,99.99
2022-10-08T01:50:33.772Z,99.99
2022-10-08T01:51:33.754Z,99.99
2022-10-08T01:52:33.743Z,99.99
2022-10-08T01:53:33.753Z,99.99
2022-10-08T01:54:33.724Z,99.99
2022-10-08T01:55:33.708Z,99.99
2022-10-08T01:56:33.704Z,99.99
2022-10-08T01:57:33.684Z,99.99
2022-10-08T01:58:33.683Z,99.99
2022-10-08T01:59:33.704Z,99.99
2022-10-08T02:00:33.664Z,99.99
2022-10-08T02:01:33.706Z,99.99
2022-10-08T02:02:33.689Z,99.99
2022-10-08T02:03:34.076Z,99.99
2022-10-08T02:04:33.648Z,99.99
2022-10-08T02:05:33.627Z,99.99
2022-10-08T02:06:33.605Z,99.99
2022-10-08T02:07:33.586Z,99.99
2022-10-08T02:08:33.586Z,99.99
2022-10-08T02:09:34.327Z,99.99
2022-10-08T02:10:33.566Z,99.99
2022-10-08T02:11:33.578Z,99.99
2022-10-08T02:12:33.534Z,99.99
2022-10-08T02:13:33.528Z,99.99
2022-10-08T02:14:33.518Z,99.99
2022-10-08T02:15:33.509Z,99.99
2022-10-08T02:16:33.571Z,99.99
2022-10-08T02:17:33.510Z,99.99
2022-10-08T02:18:33.478Z,99.99
2022-10-08T02:19:33.460Z,99.99
2022-10-08T02:20:33.452Z,99.99
2022-10-08T02:21:33.442Z,99.99
2022-10-08T02:22:33.438Z,99.99
2022-10-08T02:23:33.453Z,99.99
2022-10-08T02:24:33.422Z,99.99
2022-10-08T02:25:33.399Z,99.99
2022-10-08T02:26:33.391Z,99.99
2022-10-08T02:27:33.381Z,99.99
2022-10-08T02:28:33.434Z,99.99
2022-10-08T02:29:33.393Z,99.99
2022-10-08T02:30:33.353Z,99.99
2022-10-08T02:31:33.376Z,99.99
2022-10-08T02:32:33.331Z,99.99
2022-10-08T02:33:33.322Z,99.99
2022-10-08T02:34:33.312Z,99.99
2022-10-08T02:35:33.323Z,99.99
2022-10-08T02:36:33.290Z,99.99
2022-10-08T02:37:33.274Z,99.99
2022-10-08T02:38:33.262Z,99.99
2022-10-08T02:39:33.257Z,99.99
2022-10-08T02:40:33.245Z,99.99
2022-10-08T02:41:33.262Z,99.99
2022-10-08T02:42:33.228Z,99.99
2022-10-08T02:43:33.215Z,99.99
2022-10-08T02:44:33.205Z,99.99
2022-10-08T02:45:33.273Z,99.99
2022-10-08T02:46:33.187Z,99.99
2022-10-08T02:47:33.211Z,99.99
2022-10-08T02:48:33.170Z,99.99
2022-10-08T02:49:33.147Z,99.99
2022-10-08T02:50:33.150Z,99.99
2022-10-08T02:51:33.135Z,99.99
2022-10-08T02:52:33.142Z,99.99
2022-10-08T02:53:33.145Z,99.99
2022-10-08T02:54:33.108Z,99.99
2022-10-08T02:55:33.088Z,99.99
2022-10-08T02:56:33.080Z,99.99
2022-10-08T02:57:33.072Z,99.99
2022-10-08T02:58:33.069Z,99.99
2022-10-08T02:59:33.076Z,99.99
2022-10-08T03:00:33.037Z,99.99
2022-10-08T03:01:33.089Z,99.99
2022-10-08T03:02:33.114Z,99.99
2022-10-08T03:03:33.007Z,99.99
2022-10-08T03:04:33.001Z,99.99
2022-10-08T03:05:33.011Z,99.99
2022-10-08T03:06:32.972Z,99.99
2022-10-08T03:07:32.964Z,99.99
2022-10-08T03:08:32.956Z,99.99
2022-10-08T03:09:32.946Z,99.99
2022-10-08T03:10:32.941Z,99.99
2022-10-08T03:11:32.961Z,99.99
2022-10-08T03:12:32.917Z,99.99
2022-10-08T03:13:32.903Z,99.99
2022-10-08T03:14:32.893Z,99.99
2022-10-08T03:15:32.874Z,99.99
2022-10-08T03:16:32.916Z,99.99
2022-10-08T03:17:32.881Z,99.99
2022-10-08T03:18:32.851Z,99.99
2022-10-08T03:19:32.835Z,99.99
2022-10-08T03:20:32.826Z,99.99
2022-10-08T03:21:32.815Z,99.99
2022-10-08T03:22:32.804Z,99.99
2022-10-08T03:23:32.826Z,99.99
2022-10-08T03:24:32.801Z,99.99
2022-10-08T03:25:32.776Z,99.99
2022-10-08T03:26:32.774Z,99.99
2022-10-08T03:27:32.754Z,99.99
2022-10-08T03:28:32.773Z,99.99
2022-10-08T03:29:32.768Z,99.99
2022-10-08T03:30:32.776Z,99.99
2022-10-08T03:31:32.730Z,99.99
2022-10-08T03:32:32.708Z,99.99
2022-10-08T03:33:32.696Z,99.99
2022-10-08T03:34:32.687Z,99.99
2022-10-08T03:35:32.708Z,99.99
2022-10-08T03:36:32.668Z,99.99
2022-10-08T03:37:32.656Z,99.99
2022-10-08T03:38:32.650Z,99.99
2022-10-08T03:39:32.630Z,99.99
2022-10-08T03:40:32.620Z,99.99
2022-10-08T03:41:32.637Z,99.99
2022-10-08T03:42:32.600Z,99.99
2022-10-08T03:43:32.590Z,99.99
2022-10-08T03:44:32.584Z,99.99
2022-10-08T03:45:32.569Z,99.99
2022-10-08T03:46:32.628Z,99.99
2022-10-08T03:47:32.574Z,99.99
2022-10-08T03:48:32.543Z,99.99
2022-10-08T03:49:32.531Z,99.99
2022-10-08T03:50:32.520Z,99.99
2022-10-08T03:51:32.510Z,99.99
2022-10-08T03:52:32.502Z,99.99
2022-10-08T03:53:32.512Z,99.99
2022-10-08T03:54:32.483Z,99.99
2022-10-08T03:55:32.463Z,99.99
2022-10-08T03:56:32.455Z,99.99
2022-10-08T03:57:32.445Z,99.99
2022-10-08T03:58:32.444Z,99.99
2022-10-08T03:59:32.469Z,99.99
2022-10-08T04:00:32.423Z,99.99
2022-10-08T04:01:32.463Z,99.99
2022-10-08T04:02:32.483Z,99.99
2022-10-08T04:03:32.377Z,99.99
2022-10-08T04:04:32.383Z,99.99
2022-10-08T04:05:32.397Z,99.99
2022-10-08T04:06:32.355Z,99.99
2022-10-08T04:07:32.347Z,99.99
2022-10-08T04:08:32.336Z,99.99
2022-10-08T04:09:32.316Z,99.99
2022-10-08T04:10:32.318Z,99.99
2022-10-08T04:11:32.347Z,99.99
2022-10-08T04:12:32.298Z,99.99
2022-10-08T04:13:32.286Z,99.99
2022-10-08T04:14:32.283Z,99.99
2022-10-08T04:15:32.329Z,99.99
2022-10-08T04:16:32.257Z,99.99
2022-10-08T04:17:32.277Z,99.99
2022-10-08T04:18:32.231Z,99.99
2022-10-08T04:19:32.230Z,99.99
2022-10-08T04:20:32.269Z,99.99
2022-10-08T04:21:32.216Z,99.99
2022-10-08T04:22:32.196Z,99.99
2022-10-08T04:23:32.208Z,99.99
2022-10-08T04:24:32.171Z,99.99
2022-10-08T04:25:32.173Z,99.99
2022-10-08T04:26:32.155Z,99.99
2022-10-08T04:27:32.151Z,99.99
2022-10-08T04:28:36.278Z,99.99
2022-10-08T04:29:33.162Z,99.99
2022-10-08T04:30:32.113Z,99.99
2022-10-08T04:31:32.157Z,99.99
2022-10-08T04:32:32.092Z,99.99
2022-10-08T04:33:32.084Z,99.99
2022-10-08T04:34:32.071Z,99.99
2022-10-08T04:35:32.105Z,99.99
2022-10-08T04:36:32.053Z,99.99
2022-10-08T04:37:32.046Z,99.99
2022-10-08T04:38:32.033Z,99.99
2022-10-08T04:39:32.024Z,99.99
2022-10-08T04:40:32.015Z,99.99
2022-10-08T04:41:32.026Z,99.99
2022-10-08T04:42:31.995Z,99.99
2022-10-08T04:43:31.993Z,99.99
2022-10-08T04:44:31.969Z,99.99
2022-10-08T04:45:31.955Z,99.99
2022-10-08T04:46:31.992Z,99.99
2022-10-08T04:47:31.976Z,99.99
2022-10-08T04:48:31.933Z,99.99
2022-10-08T04:49:31.929Z,99.99
2022-10-08T04:50:31.906Z,99.99
2022-10-08T04:51:31.905Z,99.99
2022-10-08T04:52:31.892Z,99.99
2022-10-08T04:53:31.906Z,99.99
2022-10-08T04:54:31.866Z,99.99
2022-10-08T04:55:31.860Z,99.99
2022-10-08T04:56:31.805Z,99.99
2022-10-08T04:57:31.847Z,99.99
2022-10-08T04:58:31.828Z,99.99
2022-10-08T04:59:31.839Z,99.99
2022-10-08T05:00:31.807Z,99.99
2022-10-08T05:01:31.863Z,99.99
2022-10-08T05:02:31.842Z,99.99
2022-10-08T05:03:31.781Z,99.99
2022-10-08T05:04:31.760Z,99.99
2022-10-08T05:05:31.741Z,99.99
2022-10-08T05:06:31.691Z,99.99
2022-10-08T05:07:31.689Z,99.99
2022-10-08T05:08:31.671Z,99.99
2022-10-08T05:09:31.662Z,99.99
2022-10-08T05:10:31.652Z,99.99
2022-10-08T05:11:31.672Z,99.99
2022-10-08T05:12:31.633Z,99.99
2022-10-08T05:13:31.624Z,99.99
2022-10-08T05:14:31.612Z,99.99
2022-10-08T05:15:31.665Z,99.99
2022-10-08T05:16:31.593Z,99.99
2022-10-08T05:17:31.611Z,99.99
2022-10-08T05:18:31.579Z,99.99
2022-10-08T05:19:31.562Z,99.99
2022-10-08T05:20:31.553Z,99.99
2022-10-08T05:21:31.555Z,99.99
2022-10-08T05:22:31.540Z,99.99
2022-10-08T05:23:31.570Z,99.99
2022-10-08T05:24:31.515Z,99.99
2022-10-08T05:25:32.195Z,99.99
2022-10-08T05:26:58.133Z,99.99
2022-10-08T05:27:32.486Z,99.99
2022-10-08T05:28:31.509Z,99.99
2022-10-08T05:29:31.499Z,99.99
2022-10-08T05:30:31.449Z,99.99
2022-10-08T05:31:31.508Z,99.99
2022-10-08T05:32:31.429Z,99.99
2022-10-08T05:33:31.417Z,99.99
2022-10-08T05:34:31.405Z,99.99
2022-10-08T05:35:31.431Z,99.99
2022-10-08T05:36:31.392Z,99.99
2022-10-08T05:37:31.388Z,99.99
2022-10-08T05:38:34.787Z,99.99
2022-10-08T05:39:31.358Z,99.99
2022-10-08T05:40:31.348Z,99.99
2022-10-08T05:41:31.367Z,99.99
2022-10-08T05:42:31.320Z,99.99
2022-10-08T05:43:31.317Z,99.99
2022-10-08T05:44:34.829Z,99.99
2022-10-08T05:45:32.299Z,99.99
2022-10-08T05:46:31.365Z,99.99
2022-10-08T05:47:31.312Z,99.99
2022-10-08T05:48:31.268Z,99.99
2022-10-08T05:49:31.254Z,99.99
2022-10-08T05:50:31.241Z,99.99
2022-10-08T05:51:31.238Z,99.99
2022-10-08T05:52:31.222Z,99.99
2022-10-08T05:53:31.262Z,99.99
2022-10-08T05:54:31.206Z,99.99
2022-10-08T05:55:31.201Z,99.99
2022-10-08T05:56:31.182Z,99.99
2022-10-08T05:57:31.180Z,99.99
2022-10-08T05:58:31.182Z,99.99
2022-10-08T05:59:31.176Z,99.99
2022-10-08T06:00:31.152Z,99.99
2022-10-08T06:01:31.142Z,99.99
2022-10-08T06:02:31.180Z,99.99
2022-10-08T06:03:31.123Z,99.99
2022-10-08T06:04:31.127Z,99.99
2022-10-08T06:05:31.124Z,99.99
2022-10-08T06:06:31.083Z,99.99
2022-10-08T06:07:31.076Z,99.99
2022-10-08T06:08:31.061Z,99.99
2022-10-08T06:09:31.114Z,99.99
2022-10-08T06:10:31.036Z,99.99
2022-10-08T06:11:31.063Z,99.99
2022-10-08T06:12:31.018Z,99.99
2022-10-08T06:13:31.030Z,99.99
2022-10-08T06:14:31.011Z,99.99
2022-10-08T06:15:31.077Z,99.99
2022-10-08T06:16:31.017Z,99.99
2022-10-08T06:17:31.077Z,99.99
2022-10-08T06:18:30.959Z,99.99
2022-10-08T06:19:30.948Z,99.99
2022-10-08T06:20:32.050Z,99.99
2022-10-08T06:21:30.930Z,99.99
2022-10-08T06:22:30.926Z,99.99
2022-10-08T06:23:30.944Z,99.99
2022-10-08T06:24:30.899Z,99.99
2022-10-08T06:25:30.900Z,99.99
2022-10-08T06:26:35.372Z,99.99
2022-10-08T06:27:31.870Z,99.99
2022-10-08T06:28:30.964Z,99.99
2022-10-08T06:29:30.878Z,99.99
2022-10-08T06:30:30.842Z,99.99
2022-10-08T06:31:30.881Z,99.99
2022-10-08T06:32:30.811Z,99.99
2022-10-08T06:33:30.812Z,99.99
2022-10-08T06:34:30.800Z,99.99
2022-10-08T06:35:30.833Z,99.99
2022-10-08T06:36:30.781Z,99.99
2022-10-08T06:37:30.772Z,99.99
2022-10-08T06:38:30.758Z,99.99
2022-10-08T06:39:30.750Z,99.99
2022-10-08T06:40:30.744Z,99.99
2022-10-08T06:41:30.763Z,99.99
2022-10-08T06:42:30.715Z,99.99
2022-10-08T06:43:30.706Z,99.99
2022-10-08T06:44:30.703Z,99.99
2022-10-08T06:45:30.693Z,99.99
2022-10-08T06:46:30.681Z,99.99
2022-10-08T06:47:30.695Z,99.99
2022-10-08T06:48:30.654Z,99.99
2022-10-08T06:49:30.656Z,99.99
2022-10-08T06:50:30.632Z,99.99
2022-10-08T06:51:30.640Z,99.99
2022-10-08T06:52:30.616Z,99.99
2022-10-08T06:53:30.637Z,99.99
2022-10-08T06:54:30.596Z,99.99
2022-10-08T06:55:30.586Z,99.99
2022-10-08T06:56:30.581Z,99.99
2022-10-08T06:57:30.579Z,99.99
2022-10-08T06:58:30.556Z,99.99
2022-10-08T06:59:30.576Z,99.99
2022-10-08T07:00:30.541Z,99.99
2022-10-08T07:01:33.810Z,99.99
2022-10-08T07:02:30.580Z,99.99
2022-10-08T07:03:30.508Z,99.99
2022-10-08T07:04:30.498Z,99.99
2022-10-08T07:05:30.517Z,99.99
2022-10-08T07:06:30.472Z,99.99
2022-10-08T07:07:30.469Z,99.99
2022-10-08T07:08:30.452Z,99.99
2022-10-08T07:09:30.450Z,99.99
2022-10-08T07:10:33.820Z,99.99
2022-10-08T07:11:30.449Z,99.99
2022-10-08T07:12:30.417Z,99.99
2022-10-08T07:13:30.407Z,99.99
2022-10-08T07:14:30.391Z,99.99
2022-10-08T07:15:30.388Z,99.99
2022-10-08T07:16:30.453Z,99.99
2022-10-08T07:17:30.404Z,99.99
2022-10-08T07:18:30.351Z,99.99
2022-10-08T07:19:31.042Z,99.99
2022-10-08T07:20:30.332Z,99.99
2022-10-08T07:21:30.332Z,99.99
2022-10-08T07:22:30.302Z,99.99
2022-10-08T07:23:30.323Z,99.99
2022-10-08T07:24:30.290Z,99.99
2022-10-08T07:25:30.282Z,99.99
2022-10-08T07:26:30.273Z,99.99
2022-10-08T07:27:30.261Z,99.99
2022-10-08T07:28:30.289Z,99.99
2022-10-08T07:29:30.272Z,99.99
2022-10-08T07:30:30.236Z,99.99
2022-10-08T07:31:30.273Z,99.99
2022-10-08T07:32:30.206Z,99.99
2022-10-08T07:33:30.204Z,99.99
2022-10-08T07:34:30.193Z,99.99
2022-10-08T07:35:30.206Z,99.99
2022-10-08T07:36:30.176Z,99.99
2022-10-08T07:37:30.167Z,99.99
2022-10-08T07:38:30.145Z,99.99
2022-10-08T07:39:30.167Z,99.99
2022-10-08T07:40:30.126Z,99.99
2022-10-08T07:41:30.157Z,99.99
2022-10-08T07:42:30.114Z,99.99
2022-10-08T07:43:30.095Z,99.99
2022-10-08T07:44:30.106Z,99.99
2022-10-08T07:45:30.104Z,99.99
2022-10-08T07:46:30.068Z,99.99
2022-10-08T07:47:30.114Z,99.99
2022-10-08T07:48:33.916Z,99.99
2022-10-08T07:49:30.109Z,99.99
2022-10-08T07:50:30.029Z,99.99
2022-10-08T07:51:30.022Z,99.99
2022-10-08T07:52:30.000Z,99.70
2022-10-08T07:53:30.025Z,99.50
2022-10-08T07:54:30.671Z,99.76
2022-10-08T07:55:29.970Z,99.55
2022-10-08T07:56:29.952Z,99.25
2022-10-08T07:57:30.641Z,98.74
2022-10-08T07:58:29.948Z,98.83
2022-10-08T07:59:29.962Z,98.43
2022-10-08T08:00:29.922Z,98.12
2022-10-08T08:01:30.283Z,98.33
2022-10-08T08:02:29.940Z,97.77
2022-10-08T08:03:29.896Z,97.25
2022-10-08T08:04:29.883Z,97.46
2022-10-08T08:05:29.893Z,97.56
2022-10-08T08:06:29.854Z,97.05
2022-10-08T08:07:29.847Z,96.64
2022-10-08T08:08:29.834Z,96.33
2022-10-08T08:09:29.826Z,95.72
2022-10-08T08:10:29.835Z,95.26
2022-10-08T08:11:29.825Z,95.67
2022-10-08T08:12:29.796Z,95.88
2022-10-08T08:13:34.331Z,95.26
2022-10-08T08:14:30.774Z,94.85
2022-10-08T08:15:29.767Z,94.81
2022-10-08T08:16:29.824Z,94.71
2022-10-08T08:17:29.769Z,94.81
2022-10-08T08:18:29.732Z,94.40
2022-10-08T08:19:29.727Z,94.60
2022-10-08T08:20:29.705Z,93.54
2022-10-08T08:21:29.708Z,93.44
2022-10-08T08:22:29.687Z,92.77
2022-10-08T08:23:29.715Z,93.07
2022-10-08T08:24:29.669Z,92.87
2022-10-08T08:25:29.660Z,93.03
2022-10-08T08:26:29.648Z,92.66
2022-10-08T08:27:29.641Z,92.52
2022-10-08T08:28:29.689Z,92.01
2022-10-08T08:29:29.642Z,92.11
2022-10-08T08:30:29.609Z,92.11
2022-10-08T08:31:29.698Z,92.11
2022-10-08T08:32:29.595Z,92.01
2022-10-08T08:33:29.586Z,91.91
2022-10-08T08:34:29.571Z,92.01
2022-10-08T08:35:29.583Z,92.11
2022-10-08T08:36:29.555Z,92.01
2022-10-08T08:37:29.537Z,92.05
2022-10-08T08:38:29.532Z,92.05
2022-10-08T08:39:29.515Z,91.74
2022-10-08T08:40:29.510Z,91.78
2022-10-08T08:41:29.532Z,92.19
2022-10-08T08:42:29.495Z,91.89
2022-10-08T08:43:29.474Z,92.81
2022-10-08T08:44:29.476Z,93.12
2022-10-08T08:45:45.785Z,92.60
2022-10-08T08:46:30.516Z,92.40
2022-10-08T08:47:29.436Z,92.40
2022-10-08T08:48:29.434Z,93.26
2022-10-08T08:49:29.415Z,93.16
2022-10-08T08:50:29.416Z,93.16
2022-10-08T08:51:29.398Z,92.75
2022-10-08T08:52:29.415Z,93.30
2022-10-08T08:53:29.376Z,93.51
2022-10-08T08:54:29.368Z,93.62
2022-10-08T08:55:29.359Z,94.02
2022-10-08T08:56:29.348Z,94.12
2022-10-08T08:57:29.339Z,94.43
2022-10-08T08:58:29.358Z,94.23
2022-10-08T08:59:29.318Z,93.71
2022-10-08T09:00:29.309Z,93.20
2022-10-08T09:01:29.372Z,93.92
2022-10-08T09:02:29.291Z,94.54
2022-10-08T09:03:29.279Z,94.58
2022-10-08T09:04:29.290Z,94.99
2022-10-08T09:05:29.314Z,95.25
2022-10-08T09:06:29.250Z,95.25
2022-10-08T09:07:29.241Z,95.36
2022-10-08T09:08:29.221Z,94.54
2022-10-08T09:09:29.211Z,94.58
2022-10-08T09:10:29.232Z,94.68
2022-10-08T09:11:29.201Z,94.68
2022-10-08T09:12:29.189Z,94.99
2022-10-08T09:13:29.175Z,94.89
2022-10-08T09:14:29.172Z,94.68
2022-10-08T09:15:29.182Z,94.27
2022-10-08T09:16:29.216Z,94.27
2022-10-08T09:17:29.134Z,94.78
2022-10-08T09:18:29.133Z,94.78
2022-10-08T09:19:29.116Z,94.27
2022-10-08T09:20:29.105Z,94.48
2022-10-08T09:21:29.094Z,94.68
2022-10-08T09:22:29.121Z,94.17
2022-10-08T09:23:29.101Z,94.89
2022-10-08T09:24:29.062Z,95.09
2022-10-08T09:25:29.045Z,94.27
2022-10-08T09:26:29.056Z,94.48
2022-10-08T09:27:29.028Z,95.09
2022-10-08T09:28:29.102Z,94.89
2022-10-08T09:29:29.008Z,94.17
2022-10-08T09:30:29.082Z,93.66
2022-10-08T09:31:29.072Z,94.07
2022-10-08T09:32:28.978Z,94.37
2022-10-08T09:33:28.958Z,94.48
2022-10-08T09:34:28.988Z,94.48
2022-10-08T09:35:28.939Z,94.17
2022-10-08T09:36:28.939Z,94.27
2022-10-08T09:37:28.927Z,94.27
2022-10-08T09:38:28.910Z,93.76
2022-10-08T09:39:28.897Z,93.45
2022-10-08T09:40:28.918Z,93.66
2022-10-08T09:41:28.884Z,93.96
2022-10-08T09:42:28.870Z,94.48
2022-10-08T09:43:28.851Z,94.07
2022-10-08T09:44:28.853Z,94.07
2022-10-08T09:45:28.833Z,93.55
2022-10-08T09:46:29.003Z,93.96
2022-10-08T09:47:28.820Z,93.55
2022-10-08T09:48:28.814Z,93.30
2022-10-08T09:49:28.803Z,94.02
2022-10-08T09:50:28.790Z,94.23
2022-10-08T09:51:28.773Z,94.33
2022-10-08T09:52:28.791Z,94.54
2022-10-08T09:53:28.756Z,94.12
2022-10-08T09:54:28.745Z,93.92
2022-10-08T09:55:28.723Z,94.02
2022-10-08T09:56:28.728Z,93.92
2022-10-08T09:57:28.893Z,93.82
2022-10-08T09:58:28.735Z,93.92
2022-10-08T09:59:28.692Z,94.23
2022-10-08T10:00:28.683Z,94.23
2022-10-08T10:01:28.691Z,93.98
2022-10-08T10:02:28.660Z,93.57
2022-10-08T10:03:28.682Z,93.98
2022-10-08T10:04:28.667Z,93.73
2022-10-08T10:05:28.625Z,93.22
2022-10-08T10:06:28.617Z,93.52
2022-10-08T10:07:28.608Z,93.43
2022-10-08T10:08:28.598Z,89.80
2022-10-08T10:09:28.581Z,91.85
2022-10-08T10:10:28.603Z,92.25
2022-10-08T10:11:28.568Z,91.33
2022-10-08T10:12:28.557Z,91.23
2022-10-08T10:13:28.552Z,90.62
2022-10-08T10:14:28.539Z,90.68
2022-10-08T10:15:28.528Z,90.99
2022-10-08T10:16:28.615Z,89.09
2022-10-08T10:17:28.507Z,90.58
2022-10-08T10:18:28.494Z,90.47
2022-10-08T10:19:28.482Z,89.35
2022-10-08T10:20:28.481Z,89.65
2022-10-08T10:21:28.470Z,89.76
2022-10-08T10:22:28.498Z,88.64
2022-10-08T10:23:28.441Z,88.84
2022-10-08T10:24:28.433Z,89.15
2022-10-08T10:25:28.432Z,89.25
2022-10-08T10:26:28.411Z,89.15
2022-10-08T10:27:28.416Z,88.84
2022-10-08T10:28:28.475Z,88.57
2022-10-08T10:29:28.376Z,88.57
2022-10-08T10:30:28.372Z,88.26
2022-10-08T10:31:28.354Z,86.83
2022-10-08T10:32:31.836Z,88.26
2022-10-08T10:33:28.336Z,88.88
2022-10-08T10:34:28.366Z,88.94
2022-10-08T10:35:28.335Z,89.15
2022-10-08T10:36:28.313Z,88.12
2022-10-08T10:37:28.299Z,88.59
2022-10-08T10:38:28.292Z,88.08
2022-10-08T10:39:28.276Z,88.18
2022-10-08T10:40:28.305Z,87.67
2022-10-08T10:41:28.255Z,87.26
2022-10-08T10:42:28.247Z,87.53
2022-10-08T10:43:28.255Z,86.82
2022-10-08T10:44:28.225Z,87.08
2022-10-08T10:45:28.218Z,87.29
2022-10-08T10:46:28.277Z,86.57
2022-10-08T10:47:31.778Z,85.51
2022-10-08T10:48:28.184Z,85.21
2022-10-08T10:49:28.172Z,84.49
2022-10-08T10:50:28.184Z,85.00
2022-10-08T10:51:28.160Z,83.37
2022-10-08T10:52:28.171Z,84.18
2022-10-08T10:53:28.130Z,83.92
2022-10-08T10:54:28.130Z,83.61
2022-10-08T10:55:28.112Z,84.01
2022-10-08T10:56:28.110Z,84.53
2022-10-08T10:57:28.098Z,85.49
2022-10-08T10:58:28.122Z,86.30
2022-10-08T10:59:28.074Z,84.77
2022-10-08T11:00:28.083Z,85.69
2022-10-08T11:01:28.104Z,85.73
2022-10-08T11:02:28.122Z,85.83
2022-10-08T11:03:28.061Z,86.55
2022-10-08T11:04:28.080Z,85.63
2022-10-08T11:05:28.014Z,86.24
2022-10-08T11:06:28.013Z,86.76
2022-10-08T11:07:27.994Z,86.85
2022-10-08T11:08:27.984Z,87.10
2022-10-08T11:09:27.974Z,86.69
2022-10-08T11:10:28.005Z,86.90
2022-10-08T11:11:32.945Z,87.10
2022-10-08T11:12:28.956Z,86.69
2022-10-08T11:13:27.936Z,87.71
2022-10-08T11:14:27.925Z,86.94
2022-10-08T11:15:27.914Z,87.65
2022-10-08T11:16:27.948Z,87.35
2022-10-08T11:17:27.895Z,87.04
2022-10-08T11:18:27.888Z,87.14
2022-10-08T11:19:27.877Z,87.76
2022-10-08T11:20:27.866Z,86.73
2022-10-08T11:21:27.857Z,86.77
2022-10-08T11:22:27.879Z,87.18
2022-10-08T11:23:27.835Z,87.08
2022-10-08T11:24:27.828Z,86.98
2022-10-08T11:25:27.808Z,87.18
2022-10-08T11:26:27.815Z,87.49
2022-10-08T11:27:28.551Z,87.79
2022-10-08T11:28:58.312Z,87.29
2022-10-08T11:29:27.838Z,86.67
2022-10-08T11:30:27.789Z,86.98
2022-10-08T11:31:27.864Z,87.79
2022-10-08T11:32:27.821Z,87.29
2022-10-08T11:33:27.761Z,87.18
2022-10-08T11:34:30.317Z,85.64
2022-10-08T11:35:27.833Z,86.63
2022-10-08T11:36:32.640Z,86.12
2022-10-08T11:37:28.836Z,85.61
2022-10-08T11:38:27.722Z,86.12
2022-10-08T11:39:27.672Z,85.06
2022-10-08T11:40:27.683Z,84.44
2022-10-08T11:41:28.516Z,84.50
2022-10-08T11:42:28.946Z,83.79
2022-10-08T11:43:27.906Z,83.48
2022-10-08T11:44:27.664Z,82.67
2022-10-08T11:45:27.603Z,82.83
2022-10-08T11:46:27.664Z,81.60
2022-10-08T11:47:27.646Z,80.58
2022-10-08T11:48:28.594Z,80.69
2022-10-08T11:49:27.565Z,81.13
2022-10-08T11:50:27.796Z,82.05
2022-10-08T11:51:27.956Z,81.99
2022-10-08T11:52:27.566Z,83.01
2022-10-08T11:53:27.517Z,83.22
2022-10-08T11:54:28.330Z,83.93
2022-10-08T11:55:27.564Z,84.03
2022-10-08T11:56:27.498Z,85.30
2022-10-08T11:57:35.137Z,85.81
2022-10-08T11:58:28.520Z,84.38
2022-10-08T11:59:27.460Z,84.89
2022-10-08T12:00:27.744Z,84.72
2022-10-08T12:01:28.328Z,84.93
2022-10-08T12:02:27.628Z,84.93
2022-10-08T12:03:27.725Z,84.42
2022-10-08T12:04:27.515Z,86.12
2022-10-08T12:05:27.664Z,84.52
2022-10-08T12:06:27.933Z,82.98
2022-10-08T12:07:27.382Z,83.56
2022-10-08T12:08:27.377Z,84.38
2022-10-08T12:09:27.361Z,83.87
2022-10-08T12:10:27.380Z,83.11
2022-10-08T12:11:27.346Z,83.62
2022-10-08T12:12:27.402Z,82.29
2022-10-08T12:13:27.344Z,82.87
2022-10-08T12:14:27.319Z,80.52
2022-10-08T12:15:27.325Z,77.76
2022-10-08T12:16:27.753Z,80.69
2022-10-08T12:17:27.283Z,80.07
2022-10-08T12:18:27.275Z,79.77
2022-10-08T12:19:27.260Z,78.85
2022-10-08T12:20:27.292Z,79.83
2022-10-08T12:21:27.234Z,79.32
2022-10-08T12:22:27.255Z,78.41
2022-10-08T12:23:27.222Z,79.02
2022-10-08T12:24:27.215Z,79.02
2022-10-08T12:25:27.195Z,78.67
2022-10-08T12:26:27.193Z,78.98
2022-10-08T12:27:27.236Z,78.57
2022-10-08T12:28:27.227Z,78.53
2022-10-08T12:29:27.304Z,79.04
2022-10-08T12:30:27.154Z,79.04
2022-10-08T12:31:27.217Z,79.32
2022-10-08T12:32:27.127Z,78.91
2022-10-08T12:33:27.119Z,78.80
2022-10-08T12:34:27.149Z,76.35
2022-10-08T12:35:27.092Z,76.05
2022-10-08T12:36:27.091Z,75.95
2022-10-08T12:37:27.077Z,76.76
2022-10-08T12:38:27.070Z,77.68
2022-10-08T12:39:27.060Z,76.39
2022-10-08T12:40:27.094Z,75.98
2022-10-08T12:41:27.031Z,76.29
2022-10-08T12:42:27.019Z,75.88
2022-10-08T12:43:27.009Z,76.50
2022-10-08T12:44:27.085Z,76.39
2022-10-08T12:45:27.005Z,75.88
2022-10-08T12:46:27.172Z,75.88
2022-10-08T12:47:27.011Z,76.09
2022-10-08T12:48:27.121Z,76.80
2022-10-08T12:49:27.024Z,76.90
2022-10-08T12:50:26.945Z,75.98
2022-10-08T12:51:26.943Z,76.50
2022-10-08T12:52:26.972Z,76.19